Time;durP1;ratioP1;P1;durP2;ratioP2;P2;SDS_P1;SDS_P2;PMS_P1;PMS_P2;Temp;Humidity;BMP_temperature;BMP_pressure;BME280_temperature;BME280_humidity;BME280_pressure;Samples;Min_cycle;Max_cycle;Signal;HPM_P1;HPM_P2
2023/09/22 00:00:36;;;;;;;15.88;12.13;;;15.00;99.90;;;;;;5005109;28;20542;-58
2023/09/22 00:03:03;;;;;;;16.55;12.18;;;15.10;99.90;;;;;;5019220;28;20435;-59
2023/09/22 00:05:28;;;;;;;14.93;11.77;;;15.10;99.90;;;;;;5003919;28;20049;-59
2023/09/22 00:07:54;;;;;;;15.13;11.02;;;15.10;99.90;;;;;;4993781;28;20053;-59
2023/09/22 00:10:20;;;;;;;13.35;10.73;;;15.10;99.90;;;;;;4997043;28;20488;-60
2023/09/22 00:12:48;;;;;;;13.10;10.10;;;15.10;99.90;;;;;;5003198;28;20547;-59
2023/09/22 00:15:15;;;;;;;31.52;17.17;;;15.10;99.90;;;;;;4995436;28;20042;-60
2023/09/22 00:17:41;;;;;;;28.63;15.40;;;15.10;99.90;;;;;;4998521;28;20041;-59
2023/09/22 00:20:08;;;;;;;12.60;9.85;;;15.10;99.90;;;;;;5002746;28;20501;-59
2023/09/22 00:22:34;;;;;;;18.52;12.80;;;15.00;99.90;;;;;;5002200;28;20068;-60
2023/09/22 00:25:00;;;;;;;13.13;11.13;;;15.10;99.90;;;;;;5015375;28;20877;-59
2023/09/22 00:27:26;;;;;;;13.32;10.25;;;15.00;99.90;;;;;;5006335;28;20041;-59
2023/09/22 00:29:55;;;;;;;19.58;13.40;;;15.10;99.90;;;;;;5006595;28;20049;-60
2023/09/22 00:32:21;;;;;;;16.48;11.98;;;15.00;99.90;;;;;;5028850;28;20681;-59
2023/09/22 00:34:46;;;;;;;14.75;11.38;;;15.10;99.90;;;;;;4990248;28;20050;-59
2023/09/22 00:37:12;;;;;;;18.20;13.57;;;15.10;99.90;;;;;;5007458;28;20087;-60
2023/09/22 00:39:38;;;;;;;17.92;13.77;;;15.00;99.90;;;;;;5009224;28;20048;-59
2023/09/22 00:42:09;;;;;;;15.85;12.48;;;15.00;99.90;;;;;;4988500;28;20484;-60
2023/09/22 00:44:38;;;;;;;16.98;13.18;;;15.10;99.90;;;;;;5001203;28;20041;-59
2023/09/22 00:47:08;;;;;;;15.63;11.70;;;15.00;99.90;;;;;;5002341;28;20041;-59
2023/09/22 00:49:35;;;;;;;15.25;11.02;;;15.00;99.90;;;;;;4998126;28;20056;-57
2023/09/22 00:52:02;;;;;;;16.10;13.00;;;15.00;99.90;;;;;;5004353;28;20111;-60
2023/09/22 00:54:29;;;;;;;17.52;12.70;;;15.10;99.90;;;;;;4971773;28;20096;-59
2023/09/22 00:56:55;;;;;;;19.45;14.30;;;15.00;99.90;;;;;;4998219;28;20400;-59
2023/09/22 00:59:21;;;;;;;29.95;17.23;;;15.10;99.90;;;;;;4985407;28;20045;-59
2023/09/22 01:01:47;;;;;;;26.13;16.38;;;15.10;99.90;;;;;;5006327;28;20040;-60
2023/09/22 01:04:13;;;;;;;24.50;16.38;;;15.00;99.90;;;;;;5012560;28;20045;-60
2023/09/22 01:06:42;;;;;;;19.67;14.55;;;15.00;99.90;;;;;;5021055;28;20135;-58
2023/09/22 01:09:11;;;;;;;20.10;14.50;;;15.00;99.90;;;;;;4993492;28;20568;-60
2023/09/22 01:11:37;;;;;;;21.95;16.20;;;14.90;99.90;;;;;;5018396;28;20048;-59
2023/09/22 01:14:06;;;;;;;19.88;16.25;;;14.90;99.90;;;;;;5003324;28;20103;-58
2023/09/22 01:16:32;;;;;;;20.58;16.00;;;14.90;99.90;;;;;;5003209;28;20120;-58
2023/09/22 01:18:58;;;;;;;20.13;15.82;;;14.90;99.90;;;;;;4999134;28;20033;-60
2023/09/22 01:21:34;;;;;;;20.85;17.42;;;15.00;99.90;;;;;;5002437;28;20041;-59
2023/09/22 01:23:59;;;;;;;23.92;18.35;;;15.00;99.90;;;;;;5007974;28;20044;-60
2023/09/22 01:26:26;;;;;;;23.50;18.38;;;15.00;99.90;;;;;;5002449;28;20493;-60
2023/09/22 01:28:52;;;;;;;25.73;20.70;;;15.00;99.90;;;;;;5015958;28;20477;-59
2023/09/22 01:31:18;;;;;;;23.77;18.65;;;15.00;99.90;;;;;;5003616;28;20044;-60
2023/09/22 01:33:46;;;;;;;26.40;19.35;;;15.10;99.90;;;;;;4984652;28;20041;-59
2023/09/22 01:36:15;;;;;;;24.83;19.17;;;15.00;99.90;;;;;;5003107;28;20042;-59
2023/09/22 01:38:41;;;;;;;25.00;19.35;;;15.10;99.90;;;;;;4985577;28;20076;-59
2023/09/22 01:41:07;;;;;;;21.73;17.65;;;15.10;99.90;;;;;;4981726;28;20066;-60
2023/09/22 01:43:34;;;;;;;25.38;19.33;;;15.10;99.90;;;;;;5020655;28;20103;-60
2023/09/22 01:46:00;;;;;;;25.73;19.75;;;15.10;99.90;;;;;;4997229;28;20085;-59
2023/09/22 01:48:26;;;;;;;25.75;18.45;;;15.00;99.90;;;;;;4999905;28;20084;-60
2023/09/22 01:50:52;;;;;;;26.10;20.05;;;15.00;99.90;;;;;;4982190;28;20042;-59
2023/09/22 01:53:18;;;;;;;24.27;18.85;;;15.00;99.90;;;;;;5003058;28;20572;-58
2023/09/22 01:55:47;;;;;;;26.70;20.70;;;15.00;99.90;;;;;;5005356;28;20903;-58
2023/09/22 01:58:12;;;;;;;27.58;20.15;;;15.10;99.90;;;;;;4983631;28;20052;-59
2023/09/22 02:00:39;;;;;;;26.42;18.35;;;15.10;99.90;;;;;;4994352;28;20395;-59
2023/09/22 02:03:08;;;;;;;26.55;19.85;;;15.10;99.90;;;;;;5003050;28;20045;-59
2023/09/22 02:05:34;;;;;;;25.25;19.52;;;15.10;99.90;;;;;;5007519;28;20060;-60
2023/09/22 02:08:00;;;;;;;25.60;17.98;;;15.10;99.90;;;;;;4999694;28;20045;-60
2023/09/22 02:10:25;;;;;;;23.30;17.45;;;15.10;99.90;;;;;;5008106;28;20068;-60
2023/09/22 02:12:51;;;;;;;22.83;17.40;;;15.10;99.90;;;;;;4972549;28;20046;-60
2023/09/22 02:15:17;;;;;;;25.00;18.63;;;15.00;99.90;;;;;;4985650;28;20102;-60
2023/09/22 02:17:44;;;;;;;22.83;16.88;;;15.00;99.90;;;;;;5004154;28;20407;-61
2023/09/22 02:22:43;;;;;;;23.38;15.82;;;14.90;99.90;;;;;;4996711;28;20049;-60
2023/09/22 02:25:16;;;;;;;26.55;18.08;;;14.90;99.90;;;;;;5009057;28;20072;-60
2023/09/22 02:27:43;;;;;;;24.73;17.45;;;14.90;99.90;;;;;;5008890;28;20080;-61
2023/09/22 02:30:10;;;;;;;22.92;17.13;;;14.90;99.90;;;;;;4990442;28;20095;-62
2023/09/22 02:32:37;;;;;;;27.83;18.58;;;14.90;99.90;;;;;;4988861;28;20048;-60
2023/09/22 02:35:03;;;;;;;28.88;18.67;;;14.90;99.90;;;;;;4985195;28;20053;-60
2023/09/22 02:37:29;;;;;;;27.25;17.80;;;14.90;99.90;;;;;;5022447;28;20046;-60
2023/09/22 02:39:56;;;;;;;24.75;16.52;;;14.80;99.90;;;;;;5006339;28;20037;-59
2023/09/22 02:42:21;;;;;;;20.40;14.15;;;14.80;99.90;;;;;;4988105;28;20123;-60
2023/09/22 02:44:47;;;;;;;18.58;14.50;;;14.80;99.90;;;;;;5006185;28;20124;-60
2023/09/22 02:47:14;;;;;;;17.45;12.80;;;14.80;99.90;;;;;;5005466;28;20550;-58
2023/09/22 02:49:40;;;;;;;21.67;14.27;;;14.80;99.90;;;;;;5022980;28;20068;-60
2023/09/22 02:52:06;;;;;;;22.10;14.85;;;14.80;99.90;;;;;;5006090;28;20161;-58
2023/09/22 02:54:32;;;;;;;18.08;14.40;;;14.80;99.90;;;;;;5003416;28;20527;-60
2023/09/22 02:56:58;;;;;;;25.20;14.23;;;14.80;99.90;;;;;;5000861;28;20038;-60
2023/09/22 02:59:24;;;;;;;21.10;14.05;;;14.70;99.90;;;;;;4995221;28;20107;-59
2023/09/22 03:01:49;;;;;;;24.48;14.90;;;14.70;99.90;;;;;;5007450;28;20038;-58
2023/09/22 03:04:15;;;;;;;21.30;14.32;;;14.70;99.90;;;;;;5003072;28;20041;-59
2023/09/22 03:06:41;;;;;;;25.80;14.70;;;14.70;99.90;;;;;;5002092;28;20045;-60
2023/09/22 03:09:09;;;;;;;18.30;12.18;;;14.70;99.90;;;;;;5004599;28;20443;-60
2023/09/22 03:11:37;;;;;;;19.08;12.60;;;14.70;99.90;;;;;;5001457;28;20045;-61
2023/09/22 03:14:03;;;;;;;21.15;12.88;;;14.70;99.90;;;;;;5026525;28;20043;-59
2023/09/22 03:16:32;;;;;;;23.90;13.35;;;14.60;99.90;;;;;;5004339;28;20046;-60
2023/09/22 03:18:58;;;;;;;16.25;10.77;;;14.60;99.90;;;;;;4998089;28;20423;-60
2023/09/22 03:21:24;;;;;;;18.95;12.25;;;14.60;99.90;;;;;;5010564;28;20063;-59
2023/09/22 03:23:54;;;;;;;26.63;13.40;;;14.60;99.90;;;;;;4986105;28;20046;-59
2023/09/22 03:26:20;;;;;;;16.45;11.13;;;14.60;99.90;;;;;;5004751;28;20630;-59
2023/09/22 03:28:47;;;;;;;14.52;9.93;;;14.50;99.90;;;;;;5019514;28;20060;-60
2023/09/22 03:31:13;;;;;;;15.18;10.82;;;14.50;99.90;;;;;;5000369;28;20079;-60
2023/09/22 03:33:42;;;;;;;14.65;11.02;;;14.50;99.90;;;;;;5007025;28;20716;-59
2023/09/22 03:36:12;;;;;;;15.75;10.75;;;14.40;99.90;;;;;;4991450;28;20041;-61
2023/09/22 03:38:42;;;;;;;12.75;9.45;;;14.40;99.90;;;;;;5015532;28;20318;-60
2023/09/22 03:41:08;;;;;;;12.80;8.57;;;14.40;99.90;;;;;;5000718;28;20037;-60
2023/09/22 03:43:35;;;;;;;11.98;8.35;;;14.40;99.90;;;;;;5007605;28;20044;-60
2023/09/22 03:46:01;;;;;;;10.10;7.00;;;14.30;99.90;;;;;;5006045;28;20076;-60
2023/09/22 03:48:26;;;;;;;10.95;7.63;;;14.30;99.90;;;;;;5001063;28;20096;-61
2023/09/22 03:50:53;;;;;;;8.52;5.95;;;14.30;99.90;;;;;;5006799;28;20045;-60
2023/09/22 03:53:19;;;;;;;8.02;6.25;;;14.20;99.90;;;;;;4990443;28;20044;-60
2023/09/22 03:55:45;;;;;;;7.60;5.70;;;14.20;99.90;;;;;;4998216;28;20045;-61
2023/09/22 03:58:14;;;;;;;8.63;5.72;;;14.10;99.90;;;;;;5003440;28;20090;-61
2023/09/22 04:00:40;;;;;;;8.38;6.28;;;14.10;99.90;;;;;;4977484;28;20511;-61
2023/09/22 04:03:09;;;;;;;9.02;6.32;;;14.10;99.90;;;;;;5002235;28;20049;-61
2023/09/22 04:05:36;;;;;;;8.43;6.60;;;14.10;99.90;;;;;;5010483;28;20040;-61
2023/09/22 04:08:02;;;;;;;8.98;7.00;;;14.00;99.90;;;;;;4983515;28;20043;-60
2023/09/22 04:10:28;;;;;;;9.93;6.60;;;14.00;99.90;;;;;;5001037;28;20060;-60
2023/09/22 04:12:54;;;;;;;9.63;8.10;;;14.00;99.90;;;;;;4980031;28;20111;-60
2023/09/22 04:15:20;;;;;;;11.68;8.98;;;14.00;99.90;;;;;;4991494;28;20046;-60
2023/09/22 04:17:46;;;;;;;11.13;8.82;;;14.00;99.90;;;;;;4989014;28;20053;-60
2023/09/22 04:20:12;;;;;;;12.20;8.73;;;14.10;99.90;;;;;;4997201;28;20045;-60
2023/09/22 04:22:39;;;;;;;13.45;9.25;;;14.10;99.90;;;;;;4988894;28;20040;-60
2023/09/22 04:25:10;;;;;;;10.43;9.25;;;14.10;99.90;;;;;;4987263;28;20044;-60
2023/09/22 04:27:42;;;;;;;17.20;10.95;;;14.10;99.90;;;;;;4999795;28;20057;-60
2023/09/22 04:30:11;;;;;;;11.63;10.30;;;14.10;99.90;;;;;;4993316;28;20120;-59
2023/09/22 04:32:38;;;;;;;12.73;9.38;;;14.10;99.90;;;;;;4981928;28;20049;-60
2023/09/22 04:35:07;;;;;;;13.07;10.38;;;14.10;99.90;;;;;;4998987;28;20037;-60
2023/09/22 04:37:33;;;;;;;12.65;9.73;;;14.10;99.90;;;;;;5018710;28;20131;-60
2023/09/22 04:39:59;;;;;;;11.43;9.30;;;14.10;99.90;;;;;;5005298;28;20229;-60
2023/09/22 04:42:25;;;;;;;14.43;11.77;;;14.10;99.90;;;;;;5006120;28;21646;-60
2023/09/22 04:44:57;;;;;;;14.68;10.95;;;14.10;99.90;;;;;;5016025;28;20144;-60
2023/09/22 04:47:23;;;;;;;15.40;11.07;;;14.10;99.90;;;;;;4978177;28;20045;-60
2023/09/22 04:49:49;;;;;;;13.95;10.88;;;14.10;99.90;;;;;;4997085;28;20300;-60
2023/09/22 04:52:15;;;;;;;12.65;11.23;;;14.10;99.90;;;;;;5000870;28;20136;-59
2023/09/22 04:54:46;;;;;;;16.98;11.77;;;14.10;99.90;;;;;;4972066;28;20615;-60
2023/09/22 04:57:12;;;;;;;15.20;11.75;;;14.20;99.90;;;;;;4995604;28;20052;-60
2023/09/22 04:59:38;;;;;;;15.20;11.65;;;14.20;99.90;;;;;;5001403;28;20045;-60
2023/09/22 05:02:05;;;;;;;17.95;12.77;;;14.20;99.90;;;;;;4998367;28;20052;-60
2023/09/22 05:04:31;;;;;;;19.75;14.13;;;14.20;99.90;;;;;;5000600;28;20065;-60
2023/09/22 05:06:58;;;;;;;21.50;15.27;;;14.20;99.90;;;;;;4999653;28;20053;-60
2023/09/22 05:09:23;;;;;;;24.73;14.98;;;14.20;99.90;;;;;;5002405;28;20052;-60
2023/09/22 05:11:49;;;;;;;21.92;15.10;;;14.20;99.90;;;;;;4995423;28;20046;-60
2023/09/22 05:14:23;;;;;;;26.30;16.83;;;14.20;99.90;;;;;;4987521;28;20229;-61
2023/09/22 05:16:49;;;;;;;23.98;17.20;;;14.20;99.90;;;;;;5004900;28;20054;-60
2023/09/22 05:19:14;;;;;;;29.98;17.10;;;14.20;99.90;;;;;;4997281;28;20106;-60
2023/09/22 05:21:40;;;;;;;27.63;19.27;;;14.20;99.90;;;;;;5004187;28;20048;-60
2023/09/22 05:24:06;;;;;;;31.05;18.48;;;14.20;99.90;;;;;;4997116;28;20508;-60
2023/09/22 05:26:35;;;;;;;31.02;19.63;;;14.20;99.90;;;;;;4997933;28;20052;-60
2023/09/22 05:29:01;;;;;;;30.83;19.05;;;14.20;99.90;;;;;;4986306;28;20084;-60
2023/09/22 05:31:26;;;;;;;30.42;20.75;;;14.20;99.90;;;;;;4997474;28;20041;-60
2023/09/22 05:33:52;;;;;;;31.60;19.55;;;14.10;99.90;;;;;;5004806;28;20165;-59
2023/09/22 05:36:18;;;;;;;27.75;18.67;;;14.20;99.90;;;;;;5004361;28;20038;-60
2023/09/22 05:38:44;;;;;;;30.38;17.77;;;14.10;99.90;;;;;;4990635;28;20033;-60
2023/09/22 05:41:10;;;;;;;26.98;17.83;;;14.10;99.90;;;;;;5019563;28;20055;-60
2023/09/22 05:43:35;;;;;;;26.20;17.60;;;14.10;99.90;;;;;;5021238;28;20034;-61
2023/09/22 05:46:01;;;;;;;26.80;18.90;;;14.10;99.90;;;;;;5005273;28;20128;-60
2023/09/22 05:48:27;;;;;;;33.00;19.55;;;14.10;99.90;;;;;;4996772;28;20040;-61
2023/09/22 05:51:00;;;;;;;28.35;18.70;;;14.10;99.90;;;;;;5007219;28;20059;-60
2023/09/22 05:53:27;;;;;;;28.17;18.65;;;14.00;99.90;;;;;;4994608;28;20045;-61
2023/09/22 05:56:12;;;;;;;27.13;18.45;;;14.00;99.90;;;;;;5005743;28;20559;-61
2023/09/22 05:58:40;;;;;;;29.27;19.30;;;13.90;99.90;;;;;;4989034;28;20056;-60
2023/09/22 06:01:11;;;;;;;30.10;19.73;;;13.90;99.90;;;;;;4987337;28;20397;-61
2023/09/22 06:03:38;;;;;;;34.22;20.85;;;13.90;99.90;;;;;;4993234;28;20642;-61
2023/09/22 06:06:08;;;;;;;34.05;21.77;;;13.90;99.90;;;;;;4994125;28;20053;-61
2023/09/22 06:08:42;;;;;;;31.95;21.27;;;13.90;99.90;;;;;;5003732;28;20049;-61
2023/09/22 06:11:09;;;;;;;33.50;21.65;;;13.80;99.90;;;;;;5010338;28;20045;-59
2023/09/22 06:13:36;;;;;;;36.70;23.50;;;13.80;99.90;;;;;;5009159;28;20045;-61
2023/09/22 06:16:02;;;;;;;32.40;22.10;;;13.80;99.90;;;;;;5005521;28;20145;-61
2023/09/22 06:18:28;;;;;;;33.97;22.02;;;13.80;99.90;;;;;;4989981;28;20128;-61
2023/09/22 06:20:58;;;;;;;32.80;20.65;;;13.80;99.90;;;;;;5006300;28;20103;-61
2023/09/22 06:23:24;;;;;;;30.23;21.10;;;13.80;99.90;;;;;;5005579;28;20045;-61
2023/09/22 06:25:51;;;;;;;34.63;22.30;;;13.80;99.90;;;;;;5003126;28;20516;-61
2023/09/22 06:28:21;;;;;;;32.10;21.00;;;13.80;99.90;;;;;;5009625;28;20041;-61
2023/09/22 06:30:47;;;;;;;33.83;22.52;;;13.80;99.90;;;;;;5005941;28;20474;-62
2023/09/22 06:33:15;;;;;;;33.92;22.63;;;13.80;99.90;;;;;;5006480;28;20049;-61
2023/09/22 06:35:40;;;;;;;33.75;21.55;;;13.80;99.90;;;;;;5004230;28;20041;-60
2023/09/22 06:38:06;;;;;;;32.63;22.17;;;13.90;99.90;;;;;;5023085;28;21357;-58
2023/09/22 06:40:45;;;;;;;33.35;22.63;;;13.90;99.90;;;;;;5002642;28;20104;-60
2023/09/22 06:43:11;;;;;;;35.83;23.38;;;13.90;99.90;;;;;;4997492;28;20046;-58
2023/09/22 06:45:41;;;;;;;39.80;24.67;;;14.00;99.90;;;;;;5008603;28;20157;-58
2023/09/22 06:48:06;;;;;;;37.85;23.60;;;14.00;99.90;;;;;;4991945;28;20041;-58
2023/09/22 06:50:36;;;;;;;35.60;22.25;;;14.00;99.90;;;;;;5008315;28;20053;-58
2023/09/22 06:55:42;;;;;;;37.63;23.85;;;14.00;99.90;;;;;;5080049;28;20562;-61
2023/09/22 06:58:10;;;;;;;36.28;23.33;;;14.00;99.90;;;;;;5045877;28;20037;-59
2023/09/22 07:00:36;;;;;;;33.47;21.60;;;14.00;99.90;;;;;;5054699;28;20162;-59
2023/09/22 07:03:02;;;;;;;34.08;23.08;;;14.00;99.90;;;;;;5058445;28;20056;-59
2023/09/22 07:05:27;;;;;;;34.47;23.20;;;14.10;99.90;;;;;;5053315;28;20624;-61
2023/09/22 07:07:53;;;;;;;35.78;22.40;;;14.10;99.90;;;;;;5055183;28;20076;-60
2023/09/22 07:10:19;;;;;;;35.03;22.50;;;14.00;99.90;;;;;;5054692;28;20775;-61
2023/09/22 07:12:45;;;;;;;36.38;22.25;;;14.10;99.90;;;;;;5058898;28;20131;-60
2023/09/22 07:15:12;;;;;;;36.40;22.15;;;14.10;99.90;;;;;;5056959;28;20034;-59
2023/09/22 07:17:37;;;;;;;34.58;20.92;;;14.10;99.90;;;;;;5048728;28;20045;-59
2023/09/22 07:20:05;;;;;;;33.25;21.58;;;14.10;99.90;;;;;;5046778;28;20044;-61
2023/09/22 07:22:34;;;;;;;31.98;20.10;;;14.10;99.90;;;;;;5055266;28;20094;-62
2023/09/22 07:25:00;;;;;;;29.10;20.50;;;14.10;99.90;;;;;;5055570;28;20115;-61
2023/09/22 07:27:27;;;;;;;30.95;19.45;;;14.10;99.90;;;;;;5053055;28;20068;-61
2023/09/22 07:29:52;;;;;;;28.60;19.33;;;14.10;99.90;;;;;;5041426;28;20610;-61
2023/09/22 07:32:19;;;;;;;31.02;18.40;;;14.20;99.90;;;;;;5053592;28;20048;-59
2023/09/22 07:34:45;;;;;;;28.88;18.90;;;14.20;99.90;;;;;;5052022;28;20052;-61
2023/09/22 07:37:14;;;;;;;23.77;16.63;;;14.20;99.90;;;;;;5058101;28;20049;-62
2023/09/22 07:39:39;;;;;;;25.55;16.85;;;14.20;99.90;;;;;;5022938;28;20096;-61
2023/09/22 07:42:06;;;;;;;25.85;17.40;;;14.30;99.90;;;;;;5060949;28;20037;-60
2023/09/22 07:44:32;;;;;;;28.67;16.77;;;14.30;99.90;;;;;;5058917;28;20052;-59
2023/09/22 07:47:00;;;;;;;23.35;16.77;;;14.30;99.90;;;;;;5042104;28;20041;-58
2023/09/22 07:49:29;;;;;;;25.17;16.35;;;14.40;99.90;;;;;;5038051;28;20073;-61
2023/09/22 07:51:55;;;;;;;22.70;16.10;;;14.40;99.90;;;;;;5067133;28;20518;-61
2023/09/22 07:54:23;;;;;;;20.13;14.27;;;14.50;99.90;;;;;;5057949;28;20049;-58
2023/09/22 07:56:49;;;;;;;21.90;15.20;;;14.50;99.90;;;;;;5060214;28;20052;-59
2023/09/22 07:59:14;;;;;;;18.60;14.13;;;14.70;99.90;;;;;;5051569;28;20049;-58
2023/09/22 08:01:42;;;;;;;19.63;14.27;;;14.80;99.90;;;;;;5057204;28;20029;-61
2023/09/22 08:04:12;;;;;;;20.60;14.02;;;14.80;99.90;;;;;;5065197;28;20111;-61
2023/09/22 08:06:38;;;;;;;19.08;14.10;;;14.80;99.90;;;;;;5043959;28;20037;-60
2023/09/22 08:09:03;;;;;;;18.00;13.45;;;14.80;99.90;;;;;;5041576;28;20029;-62
2023/09/22 08:11:30;;;;;;;19.95;13.90;;;14.90;99.90;;;;;;5047412;28;20039;-59
2023/09/22 08:13:58;;;;;;;19.30;13.55;;;14.90;99.90;;;;;;5044810;28;20055;-60
2023/09/22 08:16:24;;;;;;;19.48;14.05;;;15.00;99.90;;;;;;5038040;28;20083;-62
2023/09/22 08:18:50;;;;;;;21.67;14.50;;;15.00;99.90;;;;;;5033981;28;20095;-61
2023/09/22 08:21:16;;;;;;;22.73;14.52;;;15.00;99.90;;;;;;5026068;28;20037;-62
2023/09/22 08:23:42;;;;;;;17.80;13.27;;;15.10;99.90;;;;;;5023109;28;20041;-59
2023/09/22 08:26:08;;;;;;;16.50;12.93;;;15.10;99.90;;;;;;5025872;28;20076;-58
2023/09/22 08:28:39;;;;;;;15.52;12.23;;;15.10;99.90;;;;;;5044655;28;20056;-59
2023/09/22 08:31:05;;;;;;;17.75;13.60;;;15.20;99.90;;;;;;5031853;28;20736;-61
2023/09/22 08:33:32;;;;;;;14.07;12.32;;;15.20;99.90;;;;;;5026351;28;20037;-61
2023/09/22 08:35:57;;;;;;;15.23;11.38;;;15.20;99.90;;;;;;5034851;28;20068;-61
2023/09/22 08:38:23;;;;;;;15.45;11.15;;;15.30;99.90;;;;;;5041503;28;20057;-59
2023/09/22 08:40:50;;;;;;;17.90;10.80;;;15.40;99.90;;;;;;5044748;28;20046;-59
2023/09/22 08:43:16;;;;;;;13.30;9.50;;;15.50;99.90;;;;;;5044260;28;20122;-59
2023/09/22 08:45:42;;;;;;;11.52;9.60;;;15.60;99.90;;;;;;5038114;28;20077;-61
2023/09/22 08:48:08;;;;;;;13.07;9.23;;;15.70;99.90;;;;;;5047596;28;20127;-60
2023/09/22 08:50:35;;;;;;;11.88;9.00;;;15.90;99.90;;;;;;5026668;28;20025;-58
2023/09/22 08:53:02;;;;;;;12.43;8.50;;;16.00;99.90;;;;;;5036273;28;20143;-58
2023/09/22 08:55:30;;;;;;;12.23;7.95;;;16.00;99.90;;;;;;5035027;28;20044;-59
2023/09/22 08:57:56;;;;;;;11.00;8.10;;;16.20;99.90;;;;;;5021085;28;20072;-59
2023/09/22 09:00:30;;;;;;;9.63;7.18;;;16.30;99.90;;;;;;5041763;28;20511;-61
2023/09/22 09:02:58;;;;;;;9.77;7.00;;;16.40;99.90;;;;;;5041747;28;20118;-59
2023/09/22 09:05:32;;;;;;;11.23;7.70;;;16.30;99.90;;;;;;5041130;28;20037;-61
2023/09/22 09:08:14;;;;;;;;;;;16.30;99.90;;;;;;5037104;28;20045;-61
2023/09/22 09:10:41;;;;;;;9.60;6.65;;;16.20;99.90;;;;;;5036274;28;20350;-61
2023/09/22 09:13:12;;;;;;;9.32;6.53;;;16.30;99.90;;;;;;5042088;28;20148;-62
2023/09/22 09:15:49;;;;;;;16.15;8.02;;;16.40;99.90;;;;;;5036636;28;20053;-61
2023/09/22 09:18:17;;;;;;;7.55;5.88;;;16.60;99.90;;;;;;5036767;28;20049;-62
2023/09/22 09:20:45;;;;;;;10.05;5.85;;;16.70;99.90;;;;;;5039582;28;20381;-61
2023/09/22 09:23:19;;;;;;;6.35;5.43;;;16.60;99.90;;;;;;5031216;28;20083;-61
2023/09/22 09:25:54;;;;;;;7.35;5.03;;;16.70;99.90;;;;;;5017930;28;20076;-61
2023/09/22 09:28:21;;;;;;;7.22;4.55;;;16.90;99.90;;;;;;5023319;28;20703;-62
2023/09/22 09:30:49;;;;;;;6.25;3.63;;;17.00;99.90;;;;;;5039748;28;20520;-62
2023/09/22 09:33:16;;;;;;;7.07;4.68;;;17.00;99.90;;;;;;5039092;28;20636;-63
2023/09/22 09:35:43;;;;;;;8.55;4.22;;;17.10;99.90;;;;;;5037051;28;20075;-61
2023/09/22 09:38:08;;;;;;;4.70;3.67;;;17.10;99.90;;;;;;5038629;28;20170;-62
2023/09/22 09:40:37;;;;;;;6.18;2.80;;;17.20;99.90;;;;;;5037322;28;20863;-61
2023/09/22 09:43:14;;;;;;;3.97;2.60;;;17.20;99.90;;;;;;5038945;28;20053;-60
2023/09/22 09:45:48;;;;;;;3.97;2.60;;;17.30;99.90;;;;;;5028175;28;20064;-61
2023/09/22 09:48:17;;;;;;;5.25;2.63;;;17.40;99.90;;;;;;5035371;28;20317;-60
2023/09/22 09:50:59;;;;;;;3.40;2.38;;;17.40;99.90;;;;;;5038575;28;20042;-60
2023/09/22 09:53:31;;;;;;;3.22;2.03;;;17.30;99.90;;;;;;5042326;28;20047;-61
2023/09/22 09:56:03;;;;;;;5.57;2.08;;;17.10;99.90;;;;;;5051374;28;20124;-58
2023/09/22 09:58:36;;;;;;;2.35;2.15;;;17.10;99.90;;;;;;5040022;28;20052;-61
2023/09/22 10:01:09;;;;;;;6.55;1.92;;;17.10;99.90;;;;;;5019207;28;20039;-61
2023/09/22 10:03:39;;;;;;;3.20;1.77;;;17.20;99.90;;;;;;5039787;28;20180;-60
2023/09/22 10:06:09;;;;;;;4.18;2.58;;;17.30;99.90;;;;;;5036099;28;20041;-61
2023/09/22 10:08:37;;;;;;;3.63;2.20;;;17.40;99.90;;;;;;5015367;28;20034;-60
2023/09/22 10:11:08;;;;;;;3.33;1.70;;;17.40;99.90;;;;;;5029007;28;20052;-61
2023/09/22 10:13:40;;;;;;;2.50;1.52;;;17.50;99.90;;;;;;5043153;28;20102;-61
2023/09/22 10:16:08;;;;;;;2.65;1.73;;;17.50;99.90;;;;;;5040112;28;20121;-61
2023/09/22 10:18:52;;;;;;;2.78;1.70;;;17.40;99.90;;;;;;5035383;28;20045;-60
2023/09/22 10:21:30;;;;;;;3.47;1.95;;;17.40;99.90;;;;;;5025298;28;20052;-58
2023/09/22 10:24:19;;;;;;;3.78;1.73;;;17.10;99.90;;;;;;5037911;28;20051;-61
2023/09/22 10:26:54;;;;;;;4.28;2.20;;;17.00;99.90;;;;;;5038359;28;20538;-62
2023/09/22 10:29:35;;;;;;;4.03;1.77;;;16.90;99.90;;;;;;5036324;28;20476;-61
2023/09/22 10:32:17;;;;;;;4.53;2.00;;;16.80;99.90;;;;;;5035404;28;20088;-62
2023/09/22 10:34:57;;;;;;;2.97;1.58;;;16.80;99.90;;;;;;5035709;28;20492;-62
2023/09/22 10:37:27;;;;;;;5.60;2.00;;;16.80;99.90;;;;;;5038444;28;20057;-62
2023/09/22 10:40:16;;;;;;;2.97;2.00;;;16.70;99.90;;;;;;5037573;28;20077;-60
2023/09/22 10:42:46;;;;;;;6.47;2.35;;;16.70;99.90;;;;;;5031006;28;20052;-61
2023/09/22 10:45:17;;;;;;;5.93;1.98;;;16.60;99.90;;;;;;5036514;28;20128;-61
2023/09/22 10:47:44;;;;;;;3.20;2.28;;;16.60;99.90;;;;;;5034933;28;20416;-61
2023/09/22 10:50:19;;;;;;;4.00;2.10;;;16.50;99.90;;;;;;5037398;28;20037;-61
2023/09/22 10:52:55;;;;;;;5.68;2.10;;;16.50;99.90;;;;;;5036938;28;20049;-60
2023/09/22 10:55:37;;;;;;;3.67;2.08;;;16.50;99.90;;;;;;5037890;28;20044;-62
2023/09/22 10:58:10;;;;;;;4.50;1.73;;;16.60;99.90;;;;;;5034556;28;20076;-61
2023/09/22 11:00:44;;;;;;;5.70;2.22;;;16.50;99.90;;;;;;5035126;28;20451;-61
2023/09/22 11:03:15;;;;;;;4.38;2.38;;;16.40;99.90;;;;;;5017755;28;20079;-61
2023/09/22 11:05:44;;;;;;;2.65;2.30;;;16.40;99.90;;;;;;5038145;28;20045;-61
2023/09/22 11:08:14;;;;;;;3.63;2.30;;;16.40;99.90;;;;;;5034746;28;20421;-61
2023/09/22 11:10:44;;;;;;;2.88;2.20;;;16.40;99.90;;;;;;5039359;28;20585;-61
2023/09/22 11:13:10;;;;;;;5.80;3.05;;;16.60;99.90;;;;;;5036085;28;20501;-61
2023/09/22 11:15:59;;;;;;;3.20;2.20;;;16.90;99.90;;;;;;5034959;28;20047;-62
2023/09/22 11:18:33;;;;;;;4.38;2.30;;;17.10;99.90;;;;;;5031761;28;20073;-62
2023/09/22 11:21:08;;;;;;;;;;;17.10;99.90;;;;;;5039053;28;20535;-62
2023/09/22 11:23:38;;;;;;;4.07;2.20;;;17.00;99.90;;;;;;5049928;28;19916;-61
2023/09/22 11:26:09;;;;;;;2.22;1.73;;;17.00;99.90;;;;;;5035335;28;22111;-61
2023/09/22 11:28:52;;;;;;;2.80;2.60;;;17.10;99.90;;;;;;5038845;28;20131;-61
2023/09/22 11:31:19;;;;;;;3.45;2.10;;;17.20;99.90;;;;;;5041238;28;20132;-61
2023/09/22 11:34:01;;;;;;;2.67;2.22;;;17.40;99.90;;;;;;5031114;28;20049;-62
2023/09/22 11:36:27;;;;;;;2.75;1.92;;;17.40;99.90;;;;;;5029480;28;20044;-61
2023/09/22 11:38:54;;;;;;;4.20;1.80;;;17.40;99.90;;;;;;5036113;28;20040;-61
2023/09/22 11:41:22;;;;;;;4.13;2.25;;;17.40;99.90;;;;;;5027158;28;20186;-61
2023/09/22 11:43:51;;;;;;;4.70;1.80;;;17.50;99.90;;;;;;5044877;28;20128;-61
2023/09/22 11:46:27;;;;;;;5.78;1.83;;;17.40;99.90;;;;;;5039928;28;20067;-62
2023/09/22 11:49:04;;;;;;;7.35;1.90;;;17.40;99.90;;;;;;5027301;28;20491;-61
2023/09/22 11:51:58;;;;;;;2.78;1.80;;;17.40;99.90;;;;;;5040182;28;20040;-62
2023/09/22 11:54:29;;;;;;;2.58;1.80;;;17.40;99.90;;;;;;5038345;28;20041;-61
2023/09/22 11:56:59;;;;;;;3.08;1.63;;;17.60;99.90;;;;;;5041912;28;20045;-62
2023/09/22 11:59:31;;;;;;;5.70;1.55;;;17.70;99.90;;;;;;5038742;28;20037;-61
2023/09/22 12:01:57;;;;;;;1.75;1.42;;;17.80;99.90;;;;;;5043930;28;20084;-61
2023/09/22 12:04:23;;;;;;;8.15;1.73;;;18.00;99.90;;;;;;5022091;28;20049;-61
2023/09/22 12:06:50;;;;;;;3.85;1.80;;;18.20;99.90;;;;;;5024481;28;20060;-61
2023/09/22 12:09:17;;;;;;;4.50;2.28;;;18.30;99.90;;;;;;5036716;28;20603;-60
2023/09/22 12:11:43;;;;;;;2.75;1.50;;;18.40;99.90;;;;;;5039093;28;20107;-60
2023/09/22 12:14:10;;;;;;;3.70;1.63;;;18.50;99.90;;;;;;5042479;28;20048;-61
2023/09/22 12:16:36;;;;;;;4.13;1.75;;;18.30;99.90;;;;;;5036232;28;20033;-61
2023/09/22 12:19:03;;;;;;;7.30;2.08;;;18.30;99.90;;;;;;5041197;28;20167;-61
2023/09/22 12:21:30;;;;;;;1.90;1.60;;;18.30;99.90;;;;;;5042462;28;20041;-61
2023/09/22 12:23:56;;;;;;;3.72;1.80;;;18.20;99.90;;;;;;5041804;28;20036;-61
2023/09/22 12:26:22;;;;;;;2.65;2.03;;;18.10;99.90;;;;;;5021753;28;20037;-60
2023/09/22 12:28:49;;;;;;;4.15;2.35;;;18.30;99.90;;;;;;5043385;28;22032;-61
2023/09/22 12:31:15;;;;;;;4.00;1.83;;;18.50;99.90;;;;;;5034488;28;20037;-61
2023/09/22 12:33:41;;;;;;;3.35;2.00;;;18.50;99.90;;;;;;5042752;28;20055;-61
2023/09/22 12:36:08;;;;;;;4.22;2.10;;;18.30;99.90;;;;;;5039926;28;20057;-60
2023/09/22 12:38:35;;;;;;;3.10;1.90;;;18.00;99.90;;;;;;5035814;28;20106;-61
2023/09/22 12:41:04;;;;;;;3.17;2.08;;;17.90;99.90;;;;;;5022541;28;20037;-60
2023/09/22 12:43:30;;;;;;;3.50;2.03;;;17.80;99.90;;;;;;5023830;28;20055;-60
2023/09/22 12:45:56;;;;;;;2.70;1.80;;;17.60;99.90;;;;;;5043979;28;20523;-60